Time,TemperatureF,DewpointF,PressureIn,WindDirection,WindDirectionDegrees,WindSpeedMPH,WindSpeedGustMPH,Humidity,HourlyPrecipIn,Conditions,Clouds,dailyrainin,SoftwareType,DateUTC
2013-08-07 00:05:00,60.6,11.1,23.77,East,98,4.0,7.8,14,0.00,,,-99.99,FreeWX 2.04,2013-08-07 06:05:00,
2013-08-07 00:15:00,59.2,10.0,23.77,East,94,3.0,8.7,14,0.00,,,-99.99,FreeWX 2.04,2013-08-07 06:15:00,
2013-08-07 00:25:00,60.4,11.1,23.77,East,95,4.0,9.6,14,0.00,,,-99.99,FreeWX 2.04,2013-08-07 06:25:00,
2013-08-07 00:35:00,61.3,6.4,23.77,ESE,105,6.0,11.2,11,0.00,,,-99.99,FreeWX 2.04,2013-08-07 06:35:00,
2013-08-07 00:45:00,61.0,6.1,23.77,ESE,107,6.0,11.0,11,0.00,,,-99.99,FreeWX 2.04,2013-08-07 06:45:00,
2013-08-07 00:55:00,60.4,5.7,23.77,ESE,103,6.0,9.2,11,0.00,,,-99.99,FreeWX 2.04,2013-08-07 06:55:00,
2013-08-07 01:05:00,59.9,5.4,23.77,ESE,116,6.0,11.2,11,0.00,,,-99.99,FreeWX 2.04,2013-08-07 07:05:00,
2013-08-07 01:15:00,58.5,6.1,23.77,East,90,4.0,8.7,12,0.00,,,-99.99,FreeWX 2.04,2013-08-07 07:15:00,
2013-08-07 01:25:00,59.7,7.0,23.77,ESE,115,6.0,11.0,12,0.00,,,-99.99,FreeWX 2.04,2013-08-07 07:25:00,
2013-08-07 01:35:00,60.1,5.4,23.77,ESE,115,7.0,12.1,11,0.00,,,-99.99,FreeWX 2.04,2013-08-07 07:35:00,
2013-08-07 01:45:00,58.3,5.9,23.77,East,95,4.0,8.3,12,0.00,,,-99.99,FreeWX 2.04,2013-08-07 07:45:00,
2013-08-07 01:55:00,57.7,5.5,23.77,East,96,4.0,8.3,12,0.00,,,-99.99,FreeWX 2.04,2013-08-07 07:55:00,
2013-08-07 02:05:00,58.3,5.9,23.77,ESE,109,6.0,11.2,12,0.00,,,-99.99,FreeWX 2.04,2013-08-07 08:05:00,
2013-08-07 02:15:00,57.2,5.0,23.77,ESE,104,6.0,10.1,12,0.00,,,-99.99,FreeWX 2.04,2013-08-07 08:15:00,
2013-08-07 02:25:00,56.8,4.8,23.74,East,100,5.0,10.1,12,0.00,,,-99.99,FreeWX 2.04,2013-08-07 08:25:00,
2013-08-07 02:35:00,56.8,4.8,23.74,ESE,109,5.0,13.4,12,0.00,,,-99.99,FreeWX 2.04,2013-08-07 08:35:00,
2013-08-07 02:45:00,56.7,4.6,23.74,ESE,106,4.0,10.1,12,0.00,,,-99.99,FreeWX 2.04,2013-08-07 08:45:00,
2013-08-07 02:55:00,55.9,4.1,23.77,East,92,4.0,7.4,12,0.00,,,-99.99,FreeWX 2.04,2013-08-07 08:55:00,
2013-08-07 03:05:00,55.8,3.9,23.74,East,96,4.0,10.5,12,0.00,,,-99.99,FreeWX 2.04,2013-08-07 09:05:00,
2013-08-07 03:15:00,56.1,4.3,23.74,East,98,4.0,9.2,12,0.00,,,-99.99,FreeWX 2.04,2013-08-07 09:15:00,
2013-08-07 03:25:00,57.2,5.0,23.74,ESE,107,5.0,10.5,12,0.00,,,-99.99,FreeWX 2.04,2013-08-07 09:25:00,
2013-08-07 03:35:00,56.7,4.6,23.74,ESE,106,5.0,9.2,12,0.00,,,-99.99,FreeWX 2.04,2013-08-07 09:35:00,
2013-08-07 03:45:00,56.7,4.6,23.74,ESE,105,5.0,11.2,12,0.00,,,-99.99,FreeWX 2.04,2013-08-07 09:45:00,
2013-08-07 03:55:00,55.9,4.1,23.74,ESE,104,4.0,8.7,12,0.00,,,-99.99,FreeWX 2.04,2013-08-07 09:55:00,
2013-08-07 04:05:00,54.5,4.6,23.74,East,90,3.0,7.4,13,0.00,,,-99.99,FreeWX 2.04,2013-08-07 10:05:00,
2013-08-07 04:15:00,53.8,4.1,23.74,East,89,3.0,6.3,13,0.00,,,-99.99,FreeWX 2.04,2013-08-07 10:15:00,
2013-08-07 04:25:00,53.2,3.7,23.74,East,88,1.0,5.8,13,0.00,,,-99.99,FreeWX 2.04,2013-08-07 10:25:00,
2013-08-07 04:35:00,52.7,3.2,23.77,East,88,2.0,5.4,13,0.00,,,-99.99,FreeWX 2.04,2013-08-07 10:35:00,
2013-08-07 04:45:00,52.3,3.0,23.77,East,93,3.0,5.8,13,0.00,,,-99.99,FreeWX 2.04,2013-08-07 10:45:00,
2013-08-07 04:55:00,52.5,3.2,23.77,ESE,106,4.0,7.8,13,0.00,,,-99.99,FreeWX 2.04,2013-08-07 10:55:00,
2013-08-07 05:05:00,52.2,2.8,23.77,ESE,103,4.0,8.3,13,0.00,,,-99.99,FreeWX 2.04,2013-08-07 11:05:00,
2013-08-07 05:15:00,51.4,2.3,23.77,East,101,3.0,8.3,13,0.00,,,-99.99,FreeWX 2.04,2013-08-07 11:15:00,
2013-08-07 05:25:00,51.8,2.5,23.77,ESE,103,4.0,8.3,13,0.00,,,-99.99,FreeWX 2.04,2013-08-07 11:25:00,
2013-08-07 05:35:00,51.4,2.3,23.77,East,96,4.0,7.4,13,0.00,,,-99.99,FreeWX 2.04,2013-08-07 11:35:00,
2013-08-07 05:45:00,51.3,2.1,23.77,East,91,1.0,4.9,13,0.00,,,-99.99,FreeWX 2.04,2013-08-07 11:45:00,
2013-08-07 05:55:00,50.9,1.8,23.77,East,81,2.0,5.8,13,0.00,,,-99.99,FreeWX 2.04,2013-08-07 11:55:00,
2013-08-07 06:05:00,50.4,3.0,23.77,ENE,73,1.0,5.8,14,0.00,,,-99.99,FreeWX 2.04,2013-08-07 12:05:00,
2013-08-07 06:15:00,50.7,3.2,23.77,East,100,1.0,5.8,14,0.00,,,-99.99,FreeWX 2.04,2013-08-07 12:15:00,
2013-08-07 06:25:00,49.6,2.5,23.77,SE,138,2.0,6.9,14,0.00,,,-99.99,FreeWX 2.04,2013-08-07 12:25:00,
2013-08-07 06:35:00,49.1,1.9,23.77,SSE,149,3.0,6.7,14,0.00,,,-99.99,FreeWX 2.04,2013-08-07 12:35:00,
2013-08-07 06:45:00,48.7,4.6,23.77,ESE,117,2.0,6.7,16,0.00,,,-99.99,FreeWX 2.04,2013-08-07 12:45:00,
2013-08-07 06:55:00,49.3,5.0,23.77,ESE,105,2.0,6.3,16,0.00,,,-99.99,FreeWX 2.04,2013-08-07 12:55:00,
2013-08-07 07:05:00,50.5,6.1,23.77,East,100,4.0,8.3,16,0.00,,,-99.99,FreeWX 2.04,2013-08-07 13:05:00,
2013-08-07 07:15:00,50.9,6.3,23.77,East,91,4.0,6.7,16,0.00,,,-99.99,FreeWX 2.04,2013-08-07 13:15:00,
2013-08-07 07:25:00,51.3,6.6,23.77,East,79,1.0,4.9,16,0.00,,,-99.99,FreeWX 2.04,2013-08-07 13:25:00,
2013-08-07 07:35:00,51.8,7.0,23.77,East,88,2.0,5.8,16,0.00,,,-99.99,FreeWX 2.04,2013-08-07 13:35:00,
2013-08-07 07:45:00,53.1,6.6,23.77,East,83,1.0,4.5,15,0.00,,,-99.99,FreeWX 2.04,2013-08-07 13:45:00,
2013-08-07 07:55:00,54.9,8.1,23.77,East,95,4.0,10.1,15,0.00,,,-99.99,FreeWX 2.04,2013-08-07 13:55:00,
2013-08-07 08:05:00,55.9,9.0,23.77,ESE,107,5.0,7.8,15,0.00,,,-99.99,FreeWX 2.04,2013-08-07 14:05:00,
2013-08-07 08:15:00,57.6,8.8,23.77,East,99,2.0,6.7,14,0.00,,,-99.99,FreeWX 2.04,2013-08-07 14:15:00,
2013-08-07 08:25:00,59.5,10.4,23.77,ESE,104,3.0,6.7,14,0.00,,,-99.99,FreeWX 2.04,2013-08-07 14:25:00,
2013-08-07 08:35:00,61.0,11.5,23.77,ESE,106,3.0,6.7,14,0.00,,,-99.99,FreeWX 2.04,2013-08-07 14:35:00,
2013-08-07 08:45:00,63.0,11.3,23.77,ESE,102,1.0,6.3,13,0.00,,,-99.99,FreeWX 2.04,2013-08-07 14:45:00,
2013-08-07 08:55:00,64.6,12.6,23.77,ESE,116,1.0,5.4,13,0.00,,,-99.99,FreeWX 2.04,2013-08-07 14:55:00,
2013-08-07 09:05:00,66.4,12.2,23.77,North,-999,0.0,4.9,12,0.00,,,-99.99,FreeWX 2.04,2013-08-07 15:05:00,
2013-08-07 09:15:00,68.4,13.8,23.77,North,-999,0.0,3.1,12,0.00,,,-99.99,FreeWX 2.04,2013-08-07 15:15:00,
2013-08-07 09:25:00,68.4,13.8,23.77,North,-999,0.0,0.0,12,0.00,,,-99.99,FreeWX 2.04,2013-08-07 15:25:00,
2013-08-07 09:35:00,68.5,14.0,23.77,NNW,348,2.0,4.5,12,0.00,,,-99.99,FreeWX 2.04,2013-08-07 15:35:00,
2013-08-07 09:46:00,68.5,14.0,23.77,North,354,2.0,5.8,12,0.00,,,-99.99,FreeWX 2.04,2013-08-07 15:46:00,
2013-08-07 09:56:00,68.7,14.0,23.77,NNW,348,3.0,6.9,12,0.00,,,-99.99,FreeWX 2.04,2013-08-07 15:56:00,
2013-08-07 10:06:00,69.3,14.5,23.77,NNW,344,3.0,6.3,12,0.00,,,-99.99,FreeWX 2.04,2013-08-07 16:06:00,
2013-08-07 10:16:00,70.2,15.3,23.77,North,349,2.0,5.8,12,0.00,,,-99.99,FreeWX 2.04,2013-08-07 16:16:00,
2013-08-07 10:26:00,70.3,15.3,23.80,NNW,337,3.0,6.9,12,0.00,,,-99.99,FreeWX 2.04,2013-08-07 16:26:00,
2013-08-07 10:36:00,71.6,14.4,23.80,NNW,327,4.0,6.7,11,0.00,,,-99.99,FreeWX 2.04,2013-08-07 16:36:00,
2013-08-07 10:46:00,72.0,14.5,23.80,NNW,334,2.0,6.7,11,0.00,,,-99.99,FreeWX 2.04,2013-08-07 16:46:00,
2013-08-07 10:56:00,72.7,15.1,23.77,NNW,340,2.0,6.9,11,0.00,,,-99.99,FreeWX 2.04,2013-08-07 16:56:00,
2013-08-07 11:06:00,72.9,15.3,23.80,NW,326,4.0,8.3,11,0.00,,,-99.99,FreeWX 2.04,2013-08-07 17:06:00,
2013-08-07 11:16:00,73.2,15.6,23.80,NNW,344,3.0,9.6,11,0.00,,,-99.99,FreeWX 2.04,2013-08-07 17:16:00,
2013-08-07 11:26:00,74.1,16.3,23.77,NW,305,5.0,10.5,11,0.00,,,-99.99,FreeWX 2.04,2013-08-07 17:26:00,
2013-08-07 11:36:00,74.7,-99.9,23.77,West,267,3.0,8.7,-999,0.00,,,-99.99,FreeWX 2.04,2013-08-07 17:36:00,
2013-08-07 11:46:00,74.5,-99.9,23.77,West,277,4.0,7.8,-999,0.00,,,-99.99,FreeWX 2.04,2013-08-07 17:46:00,
2013-08-07 11:56:00,75.4,-99.9,23.77,NW,325,4.0,9.6,-999,0.00,,,-99.99,FreeWX 2.04,2013-08-07 17:56:00,
2013-08-07 12:06:00,75.6,-99.9,23.77,NNW,343,2.0,7.8,-999,0.00,,,-99.99,FreeWX 2.04,2013-08-07 18:06:00,
2013-08-07 12:16:00,76.5,-99.9,23.77,NNW,333,2.0,6.9,-999,0.00,,,-99.99,FreeWX 2.04,2013-08-07 18:16:00,
2013-08-07 12:26:00,76.5,-99.9,23.77,West,261,2.0,6.9,-999,0.00,,,-99.99,FreeWX 2.04,2013-08-07 18:26:00,
2013-08-07 12:36:00,77.4,-99.9,23.77,NW,322,3.0,7.8,-999,0.00,,,-99.99,FreeWX 2.04,2013-08-07 18:36:00,
2013-08-07 12:46:00,77.9,-99.9,23.77,NW,312,2.0,7.4,-999,0.00,,,-99.99,FreeWX 2.04,2013-08-07 18:46:00,
2013-08-07 12:56:00,76.5,-99.9,23.77,North,358,4.0,9.6,-999,0.00,,,-99.99,FreeWX 2.04,2013-08-07 18:56:00,
2013-08-07 13:06:00,77.4,-99.9,23.77,NNW,342,5.0,9.6,-999,0.00,,,-99.99,FreeWX 2.04,2013-08-07 19:06:00,
2013-08-07 13:16:00,77.7,-99.9,23.77,NNW,338,5.0,12.5,-999,0.00,,,-99.99,FreeWX 2.04,2013-08-07 19:16:00,
2013-08-07 13:26:00,77.5,-99.9,23.77,NNW,345,4.0,10.1,-999,0.00,,,-99.99,FreeWX 2.04,2013-08-07 19:26:00,
2013-08-07 13:36:00,78.4,-99.9,23.77,WNW,298,2.0,8.3,-999,0.00,,,-99.99,FreeWX 2.04,2013-08-07 19:36:00,
2013-08-07 13:46:00,78.8,-99.9,23.77,NW,325,3.0,8.3,-999,0.00,,,-99.99,FreeWX 2.04,2013-08-07 19:46:00,
2013-08-07 13:56:00,79.2,-99.9,23.77,NW,306,6.0,12.1,-999,0.00,,,-99.99,FreeWX 2.04,2013-08-07 19:56:00,
2013-08-07 14:06:00,79.3,-99.9,23.74,WNW,300,5.0,8.7,-999,0.00,,,-99.99,FreeWX 2.04,2013-08-07 20:06:00,
2013-08-07 14:16:00,78.1,-99.9,23.74,NNW,335,7.0,12.5,-999,0.00,,,-99.99,FreeWX 2.04,2013-08-07 20:16:00,
2013-08-07 14:26:00,79.2,-99.9,23.74,North,353,5.0,10.5,-999,0.00,,,-99.99,FreeWX 2.04,2013-08-07 20:26:00,
2013-08-07 14:36:00,79.7,-99.9,23.74,NNW,334,4.0,8.7,-999,0.00,,,-99.99,FreeWX 2.04,2013-08-07 20:36:00,
2013-08-07 14:46:00,79.2,-99.9,23.74,NNE,12,5.0,9.2,-999,0.00,,,-99.99,FreeWX 2.04,2013-08-07 20:46:00,
2013-08-07 14:56:00,79.7,-99.9,23.74,NNW,327,6.0,13.0,-999,0.00,,,-99.99,FreeWX 2.04,2013-08-07 20:56:00,
2013-08-07 15:06:00,78.8,-99.9,23.74,NNW,345,7.0,12.5,-999,0.00,,,-99.99,FreeWX 2.04,2013-08-07 21:06:00,
2013-08-07 15:16:00,79.9,-99.9,23.74,NNW,327,6.0,11.2,-999,0.00,,,-99.99,FreeWX 2.04,2013-08-07 21:16:00,
2013-08-07 15:26:00,81.0,-99.9,23.74,NW,308,5.0,11.2,-999,0.00,,,-99.99,FreeWX 2.04,2013-08-07 21:26:00,
2013-08-07 15:36:00,79.9,-99.9,23.74,NNW,348,6.0,11.2,-999,0.00,,,-99.99,FreeWX 2.04,2013-08-07 21:36:00,
2013-08-07 15:46:00,79.2,-99.9,23.74,North,349,4.0,12.1,-999,0.00,,,-99.99,FreeWX 2.04,2013-08-07 21:46:00,
2013-08-07 15:56:00,80.6,-99.9,23.74,North,11,5.0,13.4,-999,0.00,,,-99.99,FreeWX 2.04,2013-08-07 21:56:00,
2013-08-07 16:06:00,80.4,-99.9,23.74,NW,307,5.0,11.6,-999,0.00,,,-99.99,FreeWX 2.04,2013-08-07 22:06:00,
2013-08-07 16:16:00,80.6,-99.9,23.74,NW,322,8.0,17.2,-999,0.00,,,-99.99,FreeWX 2.04,2013-08-07 22:16:00,
2013-08-07 16:26:00,79.9,-99.9,23.74,NW,326,9.0,16.8,-999,0.00,,,-99.99,FreeWX 2.04,2013-08-07 22:26:00,
2013-08-07 16:36:00,79.9,-99.9,23.71,NNW,330,10.0,15.2,-999,0.00,,,-99.99,FreeWX 2.04,2013-08-07 22:36:00,
2013-08-07 16:46:00,79.7,-99.9,23.71,NNW,328,8.0,15.9,-999,0.00,,,-99.99,FreeWX 2.04,2013-08-07 22:46:00,
2013-08-07 16:56:00,79.7,-99.9,23.71,NNW,339,8.0,13.0,-999,0.00,,,-99.99,FreeWX 2.04,2013-08-07 22:56:00,
2013-08-07 17:06:00,79.7,-99.9,23.71,NNW,338,7.0,14.8,-999,0.00,,,-99.99,FreeWX 2.04,2013-08-07 23:06:00,
2013-08-07 17:16:00,79.0,-99.9,23.71,NNW,345,8.0,14.8,-999,0.00,,,-99.99,FreeWX 2.04,2013-08-07 23:16:00,
2013-08-07 17:26:00,79.2,-99.9,23.71,NNW,337,7.0,13.9,-999,0.00,,,-99.99,FreeWX 2.04,2013-08-07 23:26:00,
2013-08-07 17:36:00,79.0,-99.9,23.71,North,355,7.0,14.3,-999,0.00,,,-99.99,FreeWX 2.04,2013-08-07 23:36:00,
2013-08-07 17:46:00,79.2,-99.9,23.71,NNW,327,8.0,13.0,-999,0.00,,,-99.99,FreeWX 2.04,2013-08-07 23:46:00,
2013-08-07 17:56:00,78.8,-99.9,23.71,NNW,331,7.0,11.6,-999,0.00,,,-99.99,FreeWX 2.04,2013-08-07 23:56:00,
2013-08-07 18:06:00,78.3,-99.9,23.71,NNW,328,8.0,13.4,-999,0.00,,,-99.99,FreeWX 2.04,2013-08-08 00:06:00,
2013-08-07 18:16:00,78.4,-99.9,23.71,NNW,335,6.0,10.5,-999,0.00,,,-99.99,FreeWX 2.04,2013-08-08 00:16:00,
2013-08-07 18:26:00,78.3,-99.9,23.71,NNW,330,7.0,11.6,-999,0.00,,,-99.99,FreeWX 2.04,2013-08-08 00:26:00,
2013-08-07 18:36:00,78.3,-99.9,23.71,NW,322,6.0,12.1,-999,0.00,,,-99.99,FreeWX 2.04,2013-08-08 00:36:00,
2013-08-07 18:46:00,78.8,-99.9,23.71,NW,310,6.0,11.6,-999,0.00,,,-99.99,FreeWX 2.04,2013-08-08 00:46:00,
2013-08-07 18:56:00,77.4,-99.9,23.71,NW,313,6.0,9.2,-999,0.00,,,-99.99,FreeWX 2.04,2013-08-08 00:56:00,
2013-08-07 19:06:00,77.4,-99.9,23.71,NNW,333,4.0,8.3,-999,0.00,,,-99.99,FreeWX 2.04,2013-08-08 01:06:00,
2013-08-07 19:16:00,77.5,-99.9,23.71,NW,326,4.0,8.3,-999,0.00,,,-99.99,FreeWX 2.04,2013-08-08 01:16:00,
2013-08-07 19:26:00,76.6,-99.9,23.71,NW,317,4.0,7.8,-999,0.00,,,-99.99,FreeWX 2.04,2013-08-08 01:26:00,
2013-08-07 19:36:00,78.1,-99.9,23.71,North,-999,0.0,5.8,-999,0.00,,,-99.99,FreeWX 2.04,2013-08-08 01:36:00,
2013-08-07 19:46:00,77.9,-99.9,23.71,North,-999,0.0,0.0,-999,0.00,,,-99.99,FreeWX 2.04,2013-08-08 01:46:00,
2013-08-07 19:56:00,77.0,-99.9,23.71,North,-999,0.0,0.0,-999,0.00,,,-99.99,FreeWX 2.04,2013-08-08 01:56:00,
2013-08-07 20:06:00,73.8,16.0,23.71,North,-999,0.0,4.0,11,0.00,,,-99.99,FreeWX 2.04,2013-08-08 02:06:00,
2013-08-07 20:16:00,69.8,-99.9,23.71,ESE,120,1.0,6.7,-999,0.00,,,-99.99,FreeWX 2.04,2013-08-08 02:16:00,
2013-08-07 20:26:00,67.3,-99.9,23.71,ESE,122,5.0,6.9,-999,0.00,,,-99.99,FreeWX 2.04,2013-08-08 02:26:00,
2013-08-07 20:36:00,65.7,-99.9,23.71,ESE,117,4.0,6.9,-999,0.00,,,-99.99,FreeWX 2.04,2013-08-08 02:36:00,
2013-08-07 20:46:00,64.0,-99.9,23.71,ESE,106,4.0,6.9,-999,0.00,,,-99.99,FreeWX 2.04,2013-08-08 02:46:00,
2013-08-07 20:56:00,63.5,-99.9,23.71,East,101,4.0,8.3,-999,0.00,,,-99.99,FreeWX 2.04,2013-08-08 02:56:00,
2013-08-07 21:06:00,62.6,7.3,23.71,East,95,4.0,7.4,11,0.00,,,-99.99,FreeWX 2.04,2013-08-08 03:06:00,
2013-08-07 21:16:00,61.9,6.8,23.71,East,95,3.0,7.4,11,0.00,,,-99.99,FreeWX 2.04,2013-08-08 03:16:00,
2013-08-07 21:26:00,61.5,6.6,23.74,East,92,4.0,6.9,11,0.00,,,-99.99,FreeWX 2.04,2013-08-08 03:26:00,
2013-08-07 21:36:00,61.2,6.3,23.74,East,95,4.0,9.6,11,0.00,,,-99.99,FreeWX 2.04,2013-08-08 03:36:00,
2013-08-07 21:46:00,61.0,6.1,23.74,East,96,3.0,7.8,11,0.00,,,-99.99,FreeWX 2.04,2013-08-08 03:46:00,
2013-08-07 21:56:00,60.1,5.4,23.74,East,96,4.0,7.8,11,0.00,,,-99.99,FreeWX 2.04,2013-08-08 03:56:00,
2013-08-07 22:06:00,60.1,5.4,23.74,East,97,4.0,9.6,11,0.00,,,-99.99,FreeWX 2.04,2013-08-08 04:06:00,
2013-08-07 22:17:00,60.4,5.7,23.74,East,99,5.0,10.5,11,0.00,,,-99.99,FreeWX 2.04,2013-08-08 04:17:00,
2013-08-07 22:27:00,59.5,7.0,23.74,East,99,4.0,10.1,12,0.00,,,-99.99,FreeWX 2.04,2013-08-08 04:27:00,
2013-08-07 22:37:00,59.7,7.0,23.74,East,99,5.0,11.2,12,0.00,,,-99.99,FreeWX 2.04,2013-08-08 04:37:00,
2013-08-07 22:47:00,59.4,6.8,23.74,East,97,5.0,9.6,12,0.00,,,-99.99,FreeWX 2.04,2013-08-08 04:47:00,
2013-08-07 22:57:00,58.6,6.3,23.74,East,97,4.0,9.2,12,0.00,,,-99.99,FreeWX 2.04,2013-08-08 04:57:00,
2013-08-07 23:07:00,58.6,6.3,23.74,East,97,4.0,10.1,12,0.00,,,-99.99,FreeWX 2.04,2013-08-08 05:07:00,
2013-08-07 23:17:00,59.2,6.6,23.74,East,99,5.0,10.1,12,0.00,,,-99.99,FreeWX 2.04,2013-08-08 05:17:00,
2013-08-07 23:27:00,58.5,6.1,23.74,East,100,4.0,10.1,12,0.00,,,-99.99,FreeWX 2.04,2013-08-08 05:27:00,
2013-08-07 23:37:00,58.1,5.7,23.74,East,101,5.0,9.6,12,0.00,,,-99.99,FreeWX 2.04,2013-08-08 05:37:00,
2013-08-07 23:47:00,58.1,5.7,23.74,East,101,5.0,9.2,12,0.00,,,-99.99,FreeWX 2.04,2013-08-08 05:47:00,
2013-08-07 23:57:00,57.6,5.4,23.74,ESE,103,5.0,10.1,12,0.00,,,-99.99,FreeWX 2.04,2013-08-08 05:57:00,